Quick Links (Output Below):   Max & Min Temps   /   Climate Reports   /   Zone Forecasts
River Forecasts   /   Forestry Forecasts   /   Aviation Forecasts   /   Radars   /   Features

Terminal Aerodrome Forecast (Arkadelphia)

Pick a Site:
Arkadelphia | El Dorado | Fayetteville | Fort Smith | Harrison | Highfill | Hot Springs | Jonesboro
Little Rock | Monticello | Mountain Home | Pine Bluff | Texarkana
 Forecast 

KADF 312320Z 0100/0124 13006KT P6SM BKN050 OVC100
     FM010600 18009KT P6SM VCSH SCT020 OVC040
      TEMPO 0108/0112 5SM -RA BR BKN020
     FM011200 19010G18KT 5SM -SHRA BKN012 OVC025 WS020/20045KT
      TEMPO 0113/0117 2SM SHRA BR OVC006
     FM012200 28012G22KT P6SM VCSH BKN020 OVC050=


 Latest METARs (Observations) 
How to Decode METARs
NO CURRENT OBSERVATIONS

***** Today's Observations (Above) *****


23Z KADF 312256Z AUTO 10004KT 10SM CLR 09/01 A3014 RMK AO2 T00940011
         SLP221
         
22Z KADF 312156Z AUTO 11006KT 10SM CLR 11/01 A3016 RMK AO2 T01050005
         SLP227
         
21Z KADF 312056Z AUTO 00000KT 10SM CLR 10/00 A3018 RMK AO2 56044
         T01000000 SLP233
         
20Z KADF 311956Z AUTO 08003KT 10SM FEW080 11/M01 A3021 RMK AO2
         T01051005 SLP245
         
19Z KADF 311856Z AUTO 00000KT 10SM FEW036 08/M01 A3025 RMK AO2
         T00831011 PRESFR SLP260
         
18Z KADF 311756Z AUTO 11003KT 10SM CLR 07/M01 A3030 RMK AO2 58011
         T00721011 10072 20038 SLP278
         
17Z KADF 311656Z AUTO 00000KT 10SM CLR 07/M02 A3034 RMK AO2 T00661016
         SLP290
         
16Z KADF 311556Z AUTO 11003KT 10SM CLR 06/M01 A3034 RMK AO2 T00551005
         SLP289
         
15Z KADF 311456Z AUTO 05003KT 10SM FEW110 04/M01 A3034 RMK AO2 55001
         T00441005 SLP291
         
14Z KADF 311356Z AUTO 02003KT 10SM CLR 04/M01 A3035 RMK AO2 T00381005
         SLP292
         
***** Yesterday's Observations (Above) *****


Back to Main Page
http://www.srh.noaa.gov/lzk/qfcst.php

USA.gov is the U.S. government's official web portal to all federal, state and local government web resources and services.